createdAt,value
2024-03-02T00:02:23.911Z,17.70
2024-03-02T00:05:51.569Z,17.70
2024-03-02T00:09:15.853Z,17.70
2024-03-02T00:12:42.788Z,17.70
2024-03-02T00:16:06.674Z,17.80
2024-03-02T00:19:28.988Z,17.80
2024-03-02T00:23:04.077Z,17.80
2024-03-02T00:26:26.971Z,17.80
2024-03-02T00:29:49.219Z,17.80
2024-03-02T00:33:11.959Z,17.80
2024-03-02T00:36:34.707Z,17.80
2024-03-02T00:39:57.811Z,17.80
2024-03-02T00:43:47.599Z,17.80
2024-03-02T00:47:10.776Z,17.80
2024-03-02T00:50:33.872Z,17.80
2024-03-02T00:53:59.443Z,17.80
2024-03-02T00:57:21.677Z,17.80
2024-03-02T01:00:44.076Z,17.80
2024-03-02T01:04:06.454Z,17.80
2024-03-02T01:07:28.664Z,17.80
2024-03-02T01:10:50.928Z,17.80
2024-03-02T01:14:13.202Z,17.80
2024-03-02T01:17:35.466Z,17.80
2024-03-02T01:20:57.871Z,17.80
2024-03-02T01:24:20.215Z,17.80
2024-03-02T01:27:42.679Z,17.80
2024-03-02T01:31:05.102Z,17.80
2024-03-02T01:34:27.414Z,17.80
2024-03-02T01:37:49.626Z,17.70
2024-03-02T01:41:12.759Z,17.80
2024-03-02T01:44:35.188Z,17.70
2024-03-02T01:47:57.836Z,17.70
2024-03-02T01:51:20.696Z,17.70
2024-03-02T01:54:42.926Z,17.70
2024-03-02T01:58:05.387Z,17.60
2024-03-02T02:01:27.939Z,17.60
2024-03-02T02:04:50.297Z,17.60
2024-03-02T02:08:12.639Z,17.60
2024-03-02T02:11:35.353Z,17.60
2024-03-02T02:14:57.655Z,17.60
2024-03-02T02:18:19.929Z,17.50
2024-03-02T02:21:45.515Z,17.50
2024-03-02T02:25:07.924Z,17.50
2024-03-02T02:28:30.273Z,17.50
2024-03-02T02:31:52.552Z,17.50
2024-03-02T02:35:14.953Z,17.50
2024-03-02T02:38:41.615Z,17.50
2024-03-02T02:42:03.996Z,17.40
2024-03-02T02:45:26.542Z,17.40
2024-03-02T02:48:48.929Z,17.50
2024-03-02T02:52:11.210Z,17.40
2024-03-02T02:55:33.493Z,17.50
2024-03-02T02:58:55.727Z,17.40
2024-03-02T03:02:17.988Z,17.40
2024-03-02T03:05:40.201Z,17.40
2024-03-02T03:09:03.370Z,17.40
2024-03-02T03:12:25.622Z,17.40
2024-03-02T03:15:47.931Z,17.40
2024-03-02T03:19:10.178Z,17.40
2024-03-02T03:22:33.223Z,17.40
2024-03-02T03:25:55.453Z,17.40
2024-03-02T03:29:17.700Z,17.40
2024-03-02T03:32:40.124Z,17.40
2024-03-02T03:36:04.470Z,17.40
2024-03-02T03:39:26.904Z,17.40
2024-03-02T03:42:50.050Z,17.40
2024-03-02T03:46:12.516Z,17.30
2024-03-02T03:49:34.765Z,17.30
2024-03-02T03:52:57.047Z,17.30
2024-03-02T03:56:19.332Z,17.40
2024-03-02T03:59:41.635Z,17.40
2024-03-02T04:03:04.099Z,17.30
2024-03-02T04:06:26.694Z,17.30
2024-03-02T04:09:49.067Z,17.30
2024-03-02T04:13:11.274Z,17.30
2024-03-02T04:16:33.709Z,17.30
2024-03-02T04:19:55.956Z,17.30
2024-03-02T04:23:19.685Z,17.30
2024-03-02T04:26:41.947Z,17.30
2024-03-02T04:30:06.191Z,17.30
2024-03-02T04:33:28.472Z,17.40
2024-03-02T04:36:51.150Z,17.30
2024-03-02T04:40:13.794Z,17.30
2024-03-02T04:43:36.388Z,17.40
2024-03-02T04:46:58.974Z,17.30
2024-03-02T04:50:21.231Z,17.30
2024-03-02T04:53:43.620Z,17.30
2024-03-02T04:57:05.844Z,17.30
2024-03-02T05:00:28.115Z,17.30
2024-03-02T05:03:50.643Z,17.30
2024-03-02T05:07:13.068Z,17.30
2024-03-02T05:10:35.300Z,17.30
2024-03-02T05:13:57.523Z,17.40
2024-03-02T05:17:19.840Z,17.40
2024-03-02T05:20:42.126Z,17.60
2024-03-02T05:24:04.544Z,17.60
2024-03-02T05:27:26.818Z,17.70
2024-03-02T05:30:49.069Z,17.70
2024-03-02T05:34:11.557Z,17.80
2024-03-02T05:37:33.873Z,17.90
2024-03-02T05:40:56.124Z,17.90
2024-03-02T05:44:19.479Z,18.00
2024-03-02T05:47:41.859Z,18.00
2024-03-02T05:51:04.703Z,18.00
2024-03-02T05:54:27.284Z,18.10
2024-03-02T05:58:07.748Z,18.10
2024-03-02T06:01:30.689Z,18.10
2024-03-02T06:04:55.363Z,18.10
2024-03-02T06:08:17.558Z,18.20
2024-03-02T06:11:41.520Z,18.20
2024-03-02T06:15:05.013Z,18.20
2024-03-02T06:18:27.335Z,18.20
2024-03-02T06:21:49.642Z,18.20
2024-03-02T06:25:11.923Z,18.20
2024-03-02T06:28:34.244Z,18.20
2024-03-02T06:31:56.440Z,18.30
2024-03-02T06:35:18.713Z,18.30
2024-03-02T06:38:43.558Z,18.30
2024-03-02T06:42:06.181Z,18.30
2024-03-02T06:45:28.515Z,18.30
2024-03-02T06:48:50.802Z,18.30
2024-03-02T06:52:13.128Z,18.30
2024-03-02T06:55:35.416Z,18.30
2024-03-02T06:58:57.884Z,18.30
2024-03-02T07:02:20.233Z,18.30
2024-03-02T07:05:42.612Z,18.30
2024-03-02T07:09:04.912Z,18.30
2024-03-02T07:12:27.198Z,18.40
2024-03-02T07:16:04.963Z,18.50
2024-03-02T07:19:27.415Z,18.10
2024-03-02T07:22:49.661Z,18.10
2024-03-02T07:29:37.189Z,18.40
2024-03-02T07:32:59.619Z,18.40
2024-03-02T07:36:22.019Z,18.50
2024-03-02T07:39:45.727Z,18.50
2024-03-02T07:43:08.089Z,18.50
2024-03-02T07:46:30.416Z,18.50
2024-03-02T07:49:52.704Z,18.50
2024-03-02T07:53:15.939Z,18.50
2024-03-02T07:56:38.499Z,18.60
2024-03-02T08:00:01.003Z,18.60
2024-03-02T08:03:23.353Z,18.60
2024-03-02T08:06:46.637Z,18.60
2024-03-02T08:10:09.442Z,18.50
2024-03-02T08:13:31.647Z,18.50
2024-03-02T08:16:53.995Z,18.50
2024-03-02T08:20:16.669Z,18.50
2024-03-02T08:23:41.347Z,18.50
2024-03-02T08:27:04.502Z,18.50
2024-03-02T08:30:26.793Z,18.40
2024-03-02T08:33:49.087Z,18.40
2024-03-02T08:37:11.414Z,18.50
2024-03-02T08:40:33.785Z,18.50
2024-03-02T08:43:56.122Z,18.40
2024-03-02T08:47:18.586Z,18.40
2024-03-02T08:50:41.053Z,18.40
2024-03-02T08:54:05.039Z,18.40
2024-03-02T08:57:27.392Z,18.30
2024-03-02T09:00:49.885Z,18.30
2024-03-02T09:04:12.273Z,18.50
2024-03-02T09:07:34.705Z,18.50
2024-03-02T09:10:57.751Z,18.80
2024-03-02T09:14:20.595Z,18.80
2024-03-02T09:17:42.939Z,18.70
2024-03-02T09:21:05.679Z,18.60
2024-03-02T09:24:27.932Z,18.50
2024-03-02T09:27:50.239Z,18.40
2024-03-02T09:31:13.198Z,18.60
2024-03-02T09:34:35.452Z,18.80
2024-03-02T09:37:57.672Z,19.00
2024-03-02T09:41:20.847Z,19.00
2024-03-02T09:44:44.034Z,19.00
2024-03-02T09:48:06.938Z,19.00
2024-03-02T09:51:29.468Z,18.90
2024-03-02T09:54:52.234Z,18.90
2024-03-02T09:58:14.752Z,18.80
2024-03-02T10:01:37.039Z,18.70
2024-03-02T10:04:59.396Z,18.70
2024-03-02T10:08:21.613Z,18.70
2024-03-02T10:11:43.834Z,18.70
2024-03-02T10:15:06.628Z,18.70
2024-03-02T10:18:30.441Z,18.70
2024-03-02T10:21:55.257Z,18.70
2024-03-02T10:29:00.838Z,18.60
2024-03-02T10:32:24.232Z,18.50
2024-03-02T10:35:46.529Z,18.50
2024-03-02T10:39:09.697Z,18.50
2024-03-02T10:42:32.135Z,18.50
2024-03-02T10:45:56.221Z,18.50
2024-03-02T10:49:18.950Z,18.50
2024-03-02T10:52:41.617Z,18.40
2024-03-02T10:56:08.866Z,18.50
2024-03-02T10:59:40.015Z,18.50
2024-03-02T11:03:05.354Z,18.40
2024-03-02T11:06:30.245Z,18.40
2024-03-02T11:10:00.936Z,18.40
2024-03-02T11:13:35.242Z,18.30
2024-03-02T11:16:58.253Z,18.20
2024-03-02T11:20:21.491Z,18.20
2024-03-02T11:23:43.797Z,18.20
2024-03-02T11:27:13.674Z,18.30
2024-03-02T11:30:37.557Z,18.30
2024-03-02T11:34:19.647Z,18.40
2024-03-02T11:37:41.964Z,18.40
2024-03-02T11:41:12.307Z,18.50
2024-03-02T11:44:34.985Z,18.40
2024-03-02T11:47:58.960Z,18.40
2024-03-02T11:51:21.312Z,18.40
2024-03-02T11:54:47.955Z,18.40
2024-03-02T11:58:11.051Z,18.30
2024-03-02T12:01:36.393Z,18.30
2024-03-02T12:04:58.778Z,18.40
2024-03-02T12:08:21.491Z,18.40
2024-03-02T12:11:43.862Z,18.40
2024-03-02T12:15:06.680Z,18.40
2024-03-02T12:18:29.056Z,18.40
2024-03-02T12:21:51.538Z,18.40
2024-03-02T12:25:14.116Z,18.40
2024-03-02T12:28:36.429Z,18.50
2024-03-02T12:31:58.662Z,18.50
2024-03-02T12:35:22.038Z,18.50
2024-03-02T12:38:47.854Z,18.40
2024-03-02T12:42:10.083Z,18.50
2024-03-02T12:45:32.409Z,18.40
2024-03-02T12:48:55.167Z,18.40
2024-03-02T12:52:20.159Z,18.40
2024-03-02T12:55:42.738Z,18.40
2024-03-02T12:59:06.245Z,18.40
2024-03-02T13:02:32.465Z,18.40
2024-03-02T13:05:55.035Z,18.40
2024-03-02T13:09:17.563Z,18.40
2024-03-02T13:12:39.904Z,18.50
2024-03-02T13:16:02.278Z,18.50
2024-03-02T13:19:24.540Z,18.50
2024-03-02T13:22:46.814Z,18.40
2024-03-02T13:26:11.476Z,18.40
2024-03-02T13:29:33.918Z,18.40
2024-03-02T13:32:56.254Z,18.30
2024-03-02T13:36:19.391Z,18.30
2024-03-02T13:39:43.353Z,18.30
2024-03-02T13:43:06.250Z,18.30
2024-03-02T13:46:29.109Z,18.30
2024-03-02T13:49:51.308Z,18.30
2024-03-02T13:53:13.606Z,18.30
2024-03-02T13:56:35.830Z,18.30
2024-03-02T13:59:58.151Z,18.30
2024-03-02T14:03:21.223Z,18.30
2024-03-02T14:06:45.174Z,18.20
2024-03-02T14:10:07.646Z,18.30
2024-03-02T14:13:30.249Z,18.30
2024-03-02T14:16:53.818Z,18.30
2024-03-02T14:20:21.421Z,18.30
2024-03-02T14:23:43.700Z,18.20
2024-03-02T14:27:15.009Z,18.20
2024-03-02T14:30:46.966Z,18.20
2024-03-02T14:34:10.158Z,18.20
2024-03-02T14:37:32.637Z,18.20
2024-03-02T14:40:54.904Z,18.20
2024-03-02T14:44:18.772Z,18.20
2024-03-02T14:47:41.378Z,18.20
2024-03-02T14:51:04.078Z,18.20
2024-03-02T14:54:26.450Z,18.20
2024-03-02T14:57:48.762Z,18.20
2024-03-02T15:01:11.084Z,18.20
2024-03-02T15:04:33.378Z,18.10
2024-03-02T15:07:55.696Z,18.00
2024-03-02T15:11:18.100Z,17.90
2024-03-02T15:14:46.643Z,17.80
2024-03-02T15:18:10.158Z,17.80
2024-03-02T15:21:32.519Z,17.80
2024-03-02T15:24:55.182Z,18.00
2024-03-02T15:28:17.546Z,18.20
2024-03-02T15:31:40.426Z,18.20
2024-03-02T15:35:02.793Z,18.20
2024-03-02T15:38:32.842Z,18.20
2024-03-02T15:41:56.956Z,18.20
2024-03-02T15:45:19.209Z,18.20
2024-03-02T15:48:41.495Z,18.20
2024-03-02T15:52:04.614Z,18.20
2024-03-02T15:55:26.934Z,18.10
2024-03-02T15:58:49.339Z,18.10
2024-03-02T16:02:12.133Z,18.10
2024-03-02T16:05:34.528Z,18.10
2024-03-02T16:08:58.153Z,18.10
2024-03-02T16:12:20.623Z,18.10
2024-03-02T16:15:42.896Z,18.10
2024-03-02T16:19:11.146Z,18.10
2024-03-02T16:22:38.797Z,18.10
2024-03-02T16:26:01.050Z,18.00
2024-03-02T16:29:23.257Z,18.10
2024-03-02T16:32:45.545Z,18.00
2024-03-02T16:36:08.262Z,18.00
2024-03-02T16:39:31.128Z,18.00
2024-03-02T16:42:53.483Z,18.00
2024-03-02T16:46:15.785Z,18.00
2024-03-02T16:49:38.570Z,18.00
2024-03-02T16:53:00.843Z,18.00
2024-03-02T16:56:23.171Z,18.00
2024-03-02T16:59:45.728Z,18.00
2024-03-02T17:03:08.548Z,18.00
2024-03-02T17:06:31.875Z,18.00
2024-03-02T17:09:56.935Z,18.00
2024-03-02T17:13:19.343Z,18.10
2024-03-02T17:16:41.579Z,18.20
2024-03-02T17:20:09.922Z,18.20
2024-03-02T17:23:34.186Z,18.30
2024-03-02T17:26:58.590Z,18.30
2024-03-02T17:30:22.101Z,18.40
2024-03-02T17:33:44.423Z,18.40
2024-03-02T17:37:06.788Z,18.40
2024-03-02T17:40:29.265Z,18.40
2024-03-02T17:43:51.729Z,18.50
2024-03-02T17:47:14.321Z,18.50
2024-03-02T17:50:36.708Z,18.50
2024-03-02T17:53:59.010Z,18.50
2024-03-02T17:57:21.237Z,18.70
2024-03-02T18:00:43.908Z,18.70
2024-03-02T18:04:09.858Z,18.70
2024-03-02T18:07:33.484Z,18.80
2024-03-02T18:10:56.437Z,18.80
2024-03-02T18:14:18.776Z,18.80
2024-03-02T18:17:41.073Z,18.80
2024-03-02T18:21:04.928Z,18.90
2024-03-02T18:24:29.206Z,18.90
2024-03-02T18:27:51.515Z,19.00
2024-03-02T18:31:13.975Z,19.00
2024-03-02T18:34:38.065Z,19.00
2024-03-02T18:38:02.433Z,19.00
2024-03-02T18:41:25.923Z,19.00
2024-03-02T18:44:49.765Z,19.00
2024-03-02T18:48:12.149Z,19.00
2024-03-02T18:51:34.397Z,19.10
2024-03-02T18:54:56.717Z,19.10
2024-03-02T18:58:19.070Z,19.10
2024-03-02T19:01:41.523Z,19.10
2024-03-02T19:05:05.961Z,19.00
2024-03-02T19:08:29.239Z,19.00
2024-03-02T19:11:51.594Z,19.00
2024-03-02T19:15:15.288Z,19.00
2024-03-02T19:18:37.750Z,19.00
2024-03-02T19:22:05.431Z,19.00
2024-03-02T19:25:33.146Z,18.90
2024-03-02T19:28:55.512Z,18.90
2024-03-02T19:32:21.435Z,18.90
2024-03-02T19:35:43.914Z,18.90
2024-03-02T19:39:06.150Z,18.90
2024-03-02T19:42:29.267Z,18.90
2024-03-02T19:45:51.545Z,18.90
2024-03-02T19:49:13.916Z,18.80
2024-03-02T19:52:36.334Z,18.80
2024-03-02T19:55:58.546Z,18.80
2024-03-02T19:59:20.779Z,18.80
2024-03-02T20:02:43.354Z,18.80
2024-03-02T20:06:06.060Z,18.80
2024-03-02T20:09:28.328Z,18.70
2024-03-02T20:12:50.554Z,18.80
2024-03-02T20:16:12.988Z,18.70
2024-03-02T20:19:42.389Z,18.70
2024-03-02T20:23:05.546Z,18.70
2024-03-02T20:26:27.823Z,18.70
2024-03-02T20:29:50.145Z,18.70
2024-03-02T20:33:12.591Z,18.70
2024-03-02T20:36:34.949Z,18.70
2024-03-02T20:39:59.890Z,18.70
2024-03-02T20:43:22.622Z,18.70
2024-03-02T20:46:45.377Z,18.70
2024-03-02T20:50:08.040Z,18.70
2024-03-02T20:53:30.262Z,18.70
2024-03-02T20:56:53.548Z,18.70
2024-03-02T21:00:16.193Z,18.60
2024-03-02T21:03:39.765Z,18.70
2024-03-02T21:07:02.149Z,18.60
2024-03-02T21:10:24.551Z,18.60
2024-03-02T21:13:47.039Z,18.60
2024-03-02T21:17:09.385Z,18.60
2024-03-02T21:20:31.696Z,18.60
2024-03-02T21:23:53.949Z,18.60
2024-03-02T21:27:19.287Z,18.60
2024-03-02T21:30:43.290Z,18.60
2024-03-02T21:34:05.862Z,18.60
2024-03-02T21:37:28.886Z,18.60
2024-03-02T21:40:51.082Z,18.60
2024-03-02T21:44:13.703Z,18.50
2024-03-02T21:47:35.953Z,18.50
2024-03-02T21:50:58.458Z,18.50
2024-03-02T21:54:20.740Z,18.50
2024-03-02T21:57:43.014Z,18.50
2024-03-02T22:01:05.328Z,18.50
2024-03-02T22:04:27.589Z,18.50
2024-03-02T22:07:49.838Z,18.50
2024-03-02T22:11:13.216Z,18.50
2024-03-02T22:14:35.613Z,18.40
2024-03-02T22:17:59.694Z,18.40
2024-03-02T22:21:21.959Z,18.40
2024-03-02T22:24:44.266Z,18.30
2024-03-02T22:28:06.757Z,18.40
2024-03-02T22:31:30.458Z,18.30
2024-03-02T22:34:52.681Z,18.30
2024-03-02T22:38:15.981Z,18.30
2024-03-02T22:41:38.227Z,18.30
2024-03-02T22:45:00.496Z,18.30
2024-03-02T22:48:22.918Z,18.30
2024-03-02T22:51:45.167Z,18.20
2024-03-02T22:55:07.991Z,18.20
2024-03-02T22:58:30.273Z,18.20
2024-03-02T23:01:52.650Z,18.20
2024-03-02T23:05:15.179Z,18.20
2024-03-02T23:08:37.677Z,18.20
2024-03-02T23:12:00.068Z,18.20
2024-03-02T23:15:23.019Z,18.10
2024-03-02T23:18:45.426Z,18.10
2024-03-02T23:22:09.569Z,18.10
2024-03-02T23:25:33.347Z,18.10
2024-03-02T23:28:55.627Z,18.10
2024-03-02T23:32:19.066Z,18.10
2024-03-02T23:35:41.352Z,18.10
2024-03-02T23:39:05.680Z,18.10
2024-03-02T23:42:29.082Z,18.10
2024-03-02T23:45:51.477Z,18.10
2024-03-02T23:49:13.848Z,18.00
2024-03-02T23:52:36.173Z,18.00
2024-03-02T23:56:12.518Z,18.00
2024-03-02T23:59:35.067Z,18.00
